sensor_id;sensor_type;location;lat;lon;timestamp;P1;durP1;ratioP1;P2;durP2;ratioP2
53688;SDS011;39583;54.682;30.662;2024-03-22T07:21:31;16.77;;;8.50;;
53688;SDS011;39583;54.682;30.662;2024-03-22T07:23:58;15.88;;;7.70;;
53688;SDS011;39583;54.682;30.662;2024-03-22T07:26:24;14.75;;;7.43;;
53688;SDS011;39583;54.682;30.662;2024-03-22T07:28:50;15.20;;;7.18;;
53688;SDS011;39583;54.682;30.662;2024-03-22T07:31:17;15.00;;;7.07;;
53688;SDS011;39583;54.682;30.662;2024-03-22T07:33:43;13.27;;;7.55;;
53688;SDS011;39583;54.682;30.662;2024-03-22T07:36:09;17.00;;;6.72;;
53688;SDS011;39583;54.682;30.662;2024-03-22T07:38:36;11.07;;;5.63;;
53688;SDS011;39583;54.682;30.662;2024-03-22T07:41:04;14.35;;;6.03;;
53688;SDS011;39583;54.682;30.662;2024-03-22T07:43:30;13.38;;;7.38;;
53688;SDS011;39583;54.682;30.662;2024-03-22T07:45:57;11.55;;;6.80;;
53688;SDS011;39583;54.682;30.662;2024-03-22T07:48:23;16.92;;;6.68;;
53688;SDS011;39583;54.682;30.662;2024-03-22T07:50:58;12.88;;;7.25;;
53688;SDS011;39583;54.682;30.662;2024-03-22T07:53:26;10.85;;;5.38;;
53688;SDS011;39583;54.682;30.662;2024-03-22T07:55:52;8.30;;;4.78;;
53688;SDS011;39583;54.682;30.662;2024-03-22T07:58:19;9.32;;;5.68;;
53688;SDS011;39583;54.682;30.662;2024-03-22T08:00:46;12.80;;;5.78;;
53688;SDS011;39583;54.682;30.662;2024-03-22T08:03:16;11.05;;;4.75;;
53688;SDS011;39583;54.682;30.662;2024-03-22T08:05:42;8.18;;;5.07;;
53688;SDS011;39583;54.682;30.662;2024-03-22T08:08:08;13.20;;;5.63;;
53688;SDS011;39583;54.682;30.662;2024-03-22T08:10:35;8.27;;;4.28;;
53688;SDS011;39583;54.682;30.662;2024-03-22T08:13:01;7.65;;;5.07;;
53688;SDS011;39583;54.682;30.662;2024-03-22T08:15:28;10.98;;;4.60;;
53688;SDS011;39583;54.682;30.662;2024-03-22T08:17:54;8.70;;;5.45;;
53688;SDS011;39583;54.682;30.662;2024-03-22T08:20:23;9.15;;;5.03;;
53688;SDS011;39583;54.682;30.662;2024-03-22T08:22:50;12.13;;;5.70;;
53688;SDS011;39583;54.682;30.662;2024-03-22T08:25:16;10.20;;;4.32;;
53688;SDS011;39583;54.682;30.662;2024-03-22T08:27:43;10.32;;;5.57;;
53688;SDS011;39583;54.682;30.662;2024-03-22T08:30:11;10.45;;;5.75;;
53688;SDS011;39583;54.682;30.662;2024-03-22T08:32:37;12.48;;;5.88;;
53688;SDS011;39583;54.682;30.662;2024-03-22T08:35:04;5.85;;;3.30;;
53688;SDS011;39583;54.682;30.662;2024-03-22T08:37:31;12.18;;;5.68;;
53688;SDS011;39583;54.682;30.662;2024-03-22T08:39:58;7.15;;;4.22;;
53688;SDS011;39583;54.682;30.662;2024-03-22T08:42:25;8.23;;;4.22;;
53688;SDS011;39583;54.682;30.662;2024-03-22T08:44:51;11.55;;;5.05;;
53688;SDS011;39583;54.682;30.662;2024-03-22T08:47:18;14.80;;;6.32;;
53688;SDS011;39583;54.682;30.662;2024-03-22T08:49:44;8.25;;;4.53;;
53688;SDS011;39583;54.682;30.662;2024-03-22T08:52:12;12.27;;;5.53;;
53688;SDS011;39583;54.682;30.662;2024-03-22T08:54:38;11.10;;;6.25;;
53688;SDS011;39583;54.682;30.662;2024-03-22T08:57:04;10.48;;;5.57;;
53688;SDS011;39583;54.682;30.662;2024-03-22T08:59:31;11.80;;;4.95;;
53688;SDS011;39583;54.682;30.662;2024-03-22T09:01:57;9.00;;;4.35;;
53688;SDS011;39583;54.682;30.662;2024-03-22T09:04:25;11.02;;;5.13;;
53688;SDS011;39583;54.682;30.662;2024-03-22T09:06:51;9.95;;;5.32;;
53688;SDS011;39583;54.682;30.662;2024-03-22T09:09:18;6.78;;;3.83;;
53688;SDS011;39583;54.682;30.662;2024-03-22T09:11:46;8.05;;;4.60;;
53688;SDS011;39583;54.682;30.662;2024-03-22T09:14:13;8.02;;;3.20;;
53688;SDS011;39583;54.682;30.662;2024-03-22T09:16:39;8.57;;;4.57;;
53688;SDS011;39583;54.682;30.662;2024-03-22T09:19:06;11.85;;;5.20;;
53688;SDS011;39583;54.682;30.662;2024-03-22T09:21:32;12.07;;;4.70;;
53688;SDS011;39583;54.682;30.662;2024-03-22T09:23:59;9.32;;;4.13;;
53688;SDS011;39583;54.682;30.662;2024-03-22T09:26:25;9.18;;;4.63;;
53688;SDS011;39583;54.682;30.662;2024-03-22T09:28:51;10.18;;;3.13;;
53688;SDS011;39583;54.682;30.662;2024-03-22T09:31:18;9.20;;;2.38;;
53688;SDS011;39583;54.682;30.662;2024-03-22T09:33:44;5.95;;;3.17;;
53688;SDS011;39583;54.682;30.662;2024-03-22T09:36:11;11.45;;;4.57;;
53688;SDS011;39583;54.682;30.662;2024-03-22T09:38:37;9.50;;;4.60;;
53688;SDS011;39583;54.682;30.662;2024-03-22T09:41:04;5.53;;;2.92;;
53688;SDS011;39583;54.682;30.662;2024-03-22T09:43:31;8.00;;;4.50;;
53688;SDS011;39583;54.682;30.662;2024-03-22T09:46:00;9.50;;;4.57;;
53688;SDS011;39583;54.682;30.662;2024-03-22T09:48:26;6.38;;;3.28;;
53688;SDS011;39583;54.682;30.662;2024-03-22T09:50:55;13.27;;;5.07;;
53688;SDS011;39583;54.682;30.662;2024-03-22T09:53:21;10.82;;;5.65;;
53688;SDS011;39583;54.682;30.662;2024-03-22T09:55:51;7.60;;;3.55;;
53688;SDS011;39583;54.682;30.662;2024-03-22T09:58:23;9.27;;;4.67;;
53688;SDS011;39583;54.682;30.662;2024-03-22T10:00:50;9.70;;;5.05;;
53688;SDS011;39583;54.682;30.662;2024-03-22T10:03:17;9.73;;;4.25;;
53688;SDS011;39583;54.682;30.662;2024-03-22T10:05:44;7.68;;;3.85;;
53688;SDS011;39583;54.682;30.662;2024-03-22T10:08:10;8.45;;;3.55;;
53688;SDS011;39583;54.682;30.662;2024-03-22T10:10:37;6.18;;;3.22;;
53688;SDS011;39583;54.682;30.662;2024-03-22T10:13:03;7.30;;;2.97;;
53688;SDS011;39583;54.682;30.662;2024-03-22T10:15:33;6.32;;;2.67;;
53688;SDS011;39583;54.682;30.662;2024-03-22T10:17:59;8.93;;;3.88;;
53688;SDS011;39583;54.682;30.662;2024-03-22T10:20:25;11.38;;;4.40;;
53688;SDS011;39583;54.682;30.662;2024-03-22T10:22:55;8.23;;;4.40;;
53688;SDS011;39583;54.682;30.662;2024-03-22T10:25:24;8.82;;;4.65;;
53688;SDS011;39583;54.682;30.662;2024-03-22T10:27:53;7.93;;;4.40;;
53688;SDS011;39583;54.682;30.662;2024-03-22T10:30:20;7.65;;;2.80;;
53688;SDS011;39583;54.682;30.662;2024-03-22T10:32:50;6.63;;;3.05;;
53688;SDS011;39583;54.682;30.662;2024-03-22T10:35:17;7.93;;;3.80;;
53688;SDS011;39583;54.682;30.662;2024-03-22T10:37:44;9.20;;;4.10;;
53688;SDS011;39583;54.682;30.662;2024-03-22T10:40:10;9.73;;;4.53;;
53688;SDS011;39583;54.682;30.662;2024-03-22T10:42:38;9.43;;;4.57;;
53688;SDS011;39583;54.682;30.662;2024-03-22T10:45:06;6.15;;;2.50;;
53688;SDS011;39583;54.682;30.662;2024-03-22T10:47:36;7.03;;;3.80;;
53688;SDS011;39583;54.682;30.662;2024-03-22T10:50:04;9.77;;;4.97;;
53688;SDS011;39583;54.682;30.662;2024-03-22T10:52:38;7.60;;;4.43;;
53688;SDS011;39583;54.682;30.662;2024-03-22T10:55:11;7.38;;;4.07;;
53688;SDS011;39583;54.682;30.662;2024-03-22T10:57:44;8.63;;;4.20;;
53688;SDS011;39583;54.682;30.662;2024-03-22T11:00:12;10.05;;;4.80;;
53688;SDS011;39583;54.682;30.662;2024-03-22T11:02:44;6.30;;;4.72;;
53688;SDS011;39583;54.682;30.662;2024-03-22T11:05:17;7.53;;;4.80;;
53688;SDS011;39583;54.682;30.662;2024-03-22T11:07:44;3.40;;;2.42;;
53688;SDS011;39583;54.682;30.662;2024-03-22T11:10:11;5.97;;;3.50;;
53688;SDS011;39583;54.682;30.662;2024-03-22T11:12:41;7.60;;;4.10;;
53688;SDS011;39583;54.682;30.662;2024-03-22T11:15:10;9.88;;;4.80;;
53688;SDS011;39583;54.682;30.662;2024-03-22T11:17:38;10.35;;;4.57;;
53688;SDS011;39583;54.682;30.662;2024-03-22T11:20:04;9.75;;;4.88;;
53688;SDS011;39583;54.682;30.662;2024-03-22T11:22:32;13.20;;;5.03;;
53688;SDS011;39583;54.682;30.662;2024-03-22T11:24:58;10.10;;;5.45;;
53688;SDS011;39583;54.682;30.662;2024-03-22T11:27:24;13.40;;;5.05;;
53688;SDS011;39583;54.682;30.662;2024-03-22T11:29:52;7.38;;;4.93;;
53688;SDS011;39583;54.682;30.662;2024-03-22T11:32:21;8.20;;;4.53;;
53688;SDS011;39583;54.682;30.662;2024-03-22T11:34:48;9.13;;;5.00;;
53688;SDS011;39583;54.682;30.662;2024-03-22T11:37:15;5.00;;;3.10;;
53688;SDS011;39583;54.682;30.662;2024-03-22T11:39:42;8.55;;;3.22;;
53688;SDS011;39583;54.682;30.662;2024-03-22T11:42:08;9.98;;;5.03;;
53688;SDS011;39583;54.682;30.662;2024-03-22T11:44:37;8.35;;;4.90;;
53688;SDS011;39583;54.682;30.662;2024-03-22T11:47:05;11.00;;;5.47;;
53688;SDS011;39583;54.682;30.662;2024-03-22T11:49:32;11.57;;;5.55;;
53688;SDS011;39583;54.682;30.662;2024-03-22T11:51:58;9.55;;;4.65;;
53688;SDS011;39583;54.682;30.662;2024-03-22T11:54:26;9.85;;;3.72;;
53688;SDS011;39583;54.682;30.662;2024-03-22T11:56:55;9.27;;;4.82;;
53688;SDS011;39583;54.682;30.662;2024-03-22T11:59:22;8.98;;;4.43;;
53688;SDS011;39583;54.682;30.662;2024-03-22T12:01:49;14.32;;;5.35;;
53688;SDS011;39583;54.682;30.662;2024-03-22T12:04:15;11.65;;;4.55;;
53688;SDS011;39583;54.682;30.662;2024-03-22T12:06:45;11.05;;;4.43;;
53688;SDS011;39583;54.682;30.662;2024-03-22T12:09:11;9.18;;;4.57;;
53688;SDS011;39583;54.682;30.662;2024-03-22T12:11:41;7.75;;;4.28;;
53688;SDS011;39583;54.682;30.662;2024-03-22T12:14:07;8.07;;;3.80;;
53688;SDS011;39583;54.682;30.662;2024-03-22T12:16:34;6.80;;;3.55;;
53688;SDS011;39583;54.682;30.662;2024-03-22T12:19:00;9.77;;;4.55;;
53688;SDS011;39583;54.682;30.662;2024-03-22T12:21:27;9.07;;;4.32;;
53688;SDS011;39583;54.682;30.662;2024-03-22T12:23:53;4.45;;;2.00;;
53688;SDS011;39583;54.682;30.662;2024-03-22T12:26:20;7.47;;;4.15;;
53688;SDS011;39583;54.682;30.662;2024-03-22T12:28:46;5.40;;;3.55;;
53688;SDS011;39583;54.682;30.662;2024-03-22T12:31:13;8.02;;;3.83;;
53688;SDS011;39583;54.682;30.662;2024-03-22T12:33:39;5.45;;;3.85;;
53688;SDS011;39583;54.682;30.662;2024-03-22T12:36:05;7.13;;;2.85;;
53688;SDS011;39583;54.682;30.662;2024-03-22T12:38:32;7.57;;;3.83;;
53688;SDS011;39583;54.682;30.662;2024-03-22T12:40:58;8.23;;;3.53;;
53688;SDS011;39583;54.682;30.662;2024-03-22T12:43:25;2.50;;;1.50;;
53688;SDS011;39583;54.682;30.662;2024-03-22T12:45:51;7.22;;;3.70;;
53688;SDS011;39583;54.682;30.662;2024-03-22T12:48:17;5.32;;;3.05;;
53688;SDS011;39583;54.682;30.662;2024-03-22T12:50:45;8.52;;;3.30;;
53688;SDS011;39583;54.682;30.662;2024-03-22T12:53:11;5.82;;;3.10;;
53688;SDS011;39583;54.682;30.662;2024-03-22T12:55:38;6.35;;;3.08;;
53688;SDS011;39583;54.682;30.662;2024-03-22T12:58:04;5.28;;;3.03;;
53688;SDS011;39583;54.682;30.662;2024-03-22T13:00:30;7.32;;;2.97;;
53688;SDS011;39583;54.682;30.662;2024-03-22T13:02:59;6.07;;;3.47;;
53688;SDS011;39583;54.682;30.662;2024-03-22T13:05:25;10.07;;;3.97;;
53688;SDS011;39583;54.682;30.662;2024-03-22T13:07:52;5.63;;;2.83;;
53688;SDS011;39583;54.682;30.662;2024-03-22T13:10:19;5.25;;;3.25;;
53688;SDS011;39583;54.682;30.662;2024-03-22T13:12:45;4.57;;;2.53;;
53688;SDS011;39583;54.682;30.662;2024-03-22T13:15:11;6.32;;;2.97;;
53688;SDS011;39583;54.682;30.662;2024-03-22T13:17:38;6.55;;;3.55;;
53688;SDS011;39583;54.682;30.662;2024-03-22T13:20:05;3.33;;;2.22;;
53688;SDS011;39583;54.682;30.662;2024-03-22T13:22:39;7.32;;;3.85;;
53688;SDS011;39583;54.682;30.662;2024-03-22T13:25:05;5.78;;;3.80;;
53688;SDS011;39583;54.682;30.662;2024-03-22T13:27:33;6.18;;;3.55;;
53688;SDS011;39583;54.682;30.662;2024-03-22T13:30:00;5.20;;;3.15;;
53688;SDS011;39583;54.682;30.662;2024-03-22T13:32:27;9.10;;;4.18;;
53688;SDS011;39583;54.682;30.662;2024-03-22T13:34:53;6.65;;;3.88;;
53688;SDS011;39583;54.682;30.662;2024-03-22T13:37:20;6.90;;;4.05;;
53688;SDS011;39583;54.682;30.662;2024-03-22T13:39:49;8.85;;;3.25;;
53688;SDS011;39583;54.682;30.662;2024-03-22T13:42:16;7.93;;;4.35;;
53688;SDS011;39583;54.682;30.662;2024-03-22T13:44:42;8.55;;;4.32;;
53688;SDS011;39583;54.682;30.662;2024-03-22T13:47:10;6.75;;;4.38;;
53688;SDS011;39583;54.682;30.662;2024-03-22T13:49:36;9.57;;;4.68;;
53688;SDS011;39583;54.682;30.662;2024-03-22T13:52:04;10.90;;;4.55;;
53688;SDS011;39583;54.682;30.662;2024-03-22T13:54:30;7.45;;;3.80;;
53688;SDS011;39583;54.682;30.662;2024-03-22T13:56:57;8.93;;;4.38;;
53688;SDS011;39583;54.682;30.662;2024-03-22T13:59:23;10.40;;;4.32;;
53688;SDS011;39583;54.682;30.662;2024-03-22T14:01:50;9.48;;;4.40;;
53688;SDS011;39583;54.682;30.662;2024-03-22T14:04:16;7.55;;;4.32;;
53688;SDS011;39583;54.682;30.662;2024-03-22T14:06:43;8.93;;;4.55;;
53688;SDS011;39583;54.682;30.662;2024-03-22T14:09:09;9.75;;;4.53;;
53688;SDS011;39583;54.682;30.662;2024-03-22T14:11:36;8.63;;;4.78;;
53688;SDS011;39583;54.682;30.662;2024-03-22T14:14:02;7.15;;;4.70;;
53688;SDS011;39583;54.682;30.662;2024-03-22T14:16:29;7.72;;;4.65;;
53688;SDS011;39583;54.682;30.662;2024-03-22T14:18:56;8.25;;;4.18;;
53688;SDS011;39583;54.682;30.662;2024-03-22T14:21:22;11.15;;;4.85;;
53688;SDS011;39583;54.682;30.662;2024-03-22T14:23:49;11.38;;;5.13;;
53688;SDS011;39583;54.682;30.662;2024-03-22T14:26:16;9.05;;;4.32;;
53688;SDS011;39583;54.682;30.662;2024-03-22T14:28:43;7.80;;;4.47;;
53688;SDS011;39583;54.682;30.662;2024-03-22T14:31:10;9.02;;;5.00;;
53688;SDS011;39583;54.682;30.662;2024-03-22T14:33:37;10.30;;;4.90;;
53688;SDS011;39583;54.682;30.662;2024-03-22T14:36:05;15.50;;;6.30;;
53688;SDS011;39583;54.682;30.662;2024-03-22T14:38:33;7.78;;;5.28;;
53688;SDS011;39583;54.682;30.662;2024-03-22T14:41:00;9.48;;;5.43;;
53688;SDS011;39583;54.682;30.662;2024-03-22T14:43:26;12.75;;;5.30;;
53688;SDS011;39583;54.682;30.662;2024-03-22T14:45:53;10.88;;;5.22;;
53688;SDS011;39583;54.682;30.662;2024-03-22T14:48:21;12.05;;;5.85;;
53688;SDS011;39583;54.682;30.662;2024-03-22T14:50:48;9.02;;;5.00;;
53688;SDS011;39583;54.682;30.662;2024-03-22T14:53:16;9.10;;;4.78;;
53688;SDS011;39583;54.682;30.662;2024-03-22T14:55:59;11.30;;;5.13;;
53688;SDS011;39583;54.682;30.662;2024-03-22T14:58:30;10.00;;;5.28;;
53688;SDS011;39583;54.682;30.662;2024-03-22T15:00:59;9.55;;;5.57;;
53688;SDS011;39583;54.682;30.662;2024-03-22T15:03:27;8.73;;;5.47;;
53688;SDS011;39583;54.682;30.662;2024-03-22T15:05:54;10.38;;;5.28;;
53688;SDS011;39583;54.682;30.662;2024-03-22T15:08:21;11.18;;;4.95;;
53688;SDS011;39583;54.682;30.662;2024-03-22T15:10:49;9.32;;;5.72;;
53688;SDS011;39583;54.682;30.662;2024-03-22T15:13:16;9.60;;;4.63;;
53688;SDS011;39583;54.682;30.662;2024-03-22T15:15:43;10.02;;;5.55;;
53688;SDS011;39583;54.682;30.662;2024-03-22T15:18:21;11.93;;;6.30;;
53688;SDS011;39583;54.682;30.662;2024-03-22T15:20:48;7.90;;;5.10;;
53688;SDS011;39583;54.682;30.662;2024-03-22T15:23:15;10.73;;;5.70;;
53688;SDS011;39583;54.682;30.662;2024-03-22T15:25:42;10.70;;;5.95;;
53688;SDS011;39583;54.682;30.662;2024-03-22T15:28:09;11.40;;;5.70;;
53688;SDS011;39583;54.682;30.662;2024-03-22T15:30:37;8.45;;;4.68;;
53688;SDS011;39583;54.682;30.662;2024-03-22T15:33:08;10.73;;;6.45;;
53688;SDS011;39583;54.682;30.662;2024-03-22T15:35:35;10.73;;;6.25;;
53688;SDS011;39583;54.682;30.662;2024-03-22T15:38:01;9.52;;;5.97;;
53688;SDS011;39583;54.682;30.662;2024-03-22T15:40:30;12.40;;;7.30;;
53688;SDS011;39583;54.682;30.662;2024-03-22T15:42:59;14.57;;;6.22;;
53688;SDS011;39583;54.682;30.662;2024-03-22T15:45:25;11.93;;;6.40;;
53688;SDS011;39583;54.682;30.662;2024-03-22T15:47:52;10.02;;;6.60;;
53688;SDS011;39583;54.682;30.662;2024-03-22T15:50:19;12.38;;;6.95;;
53688;SDS011;39583;54.682;30.662;2024-03-22T15:52:45;12.68;;;6.63;;
53688;SDS011;39583;54.682;30.662;2024-03-22T15:55:11;13.77;;;6.60;;
53688;SDS011;39583;54.682;30.662;2024-03-22T15:57:38;14.48;;;6.57;;
53688;SDS011;39583;54.682;30.662;2024-03-22T16:00:04;13.93;;;6.45;;
53688;SDS011;39583;54.682;30.662;2024-03-22T16:02:42;12.00;;;6.43;;
53688;SDS011;39583;54.682;30.662;2024-03-22T16:05:08;11.70;;;6.47;;
53688;SDS011;39583;54.682;30.662;2024-03-22T16:07:34;14.38;;;6.78;;
53688;SDS011;39583;54.682;30.662;2024-03-22T16:10:01;13.27;;;6.82;;
53688;SDS011;39583;54.682;30.662;2024-03-22T16:12:30;13.20;;;6.65;;
53688;SDS011;39583;54.682;30.662;2024-03-22T16:14:57;10.25;;;5.88;;
53688;SDS011;39583;54.682;30.662;2024-03-22T16:17:23;13.30;;;6.85;;
53688;SDS011;39583;54.682;30.662;2024-03-22T16:19:49;13.57;;;6.55;;
53688;SDS011;39583;54.682;30.662;2024-03-22T16:22:16;11.68;;;6.38;;
53688;SDS011;39583;54.682;30.662;2024-03-22T16:24:42;17.17;;;6.65;;
53688;SDS011;39583;54.682;30.662;2024-03-22T16:27:08;15.73;;;7.10;;
53688;SDS011;39583;54.682;30.662;2024-03-22T16:29:35;12.07;;;6.72;;
53688;SDS011;39583;54.682;30.662;2024-03-22T16:32:01;15.85;;;6.82;;
53688;SDS011;39583;54.682;30.662;2024-03-22T16:34:30;10.63;;;5.45;;
53688;SDS011;39583;54.682;30.662;2024-03-22T16:36:56;13.88;;;6.50;;
53688;SDS011;39583;54.682;30.662;2024-03-22T16:39:22;16.10;;;7.32;;
53688;SDS011;39583;54.682;30.662;2024-03-22T16:41:49;11.13;;;7.00;;
53688;SDS011;39583;54.682;30.662;2024-03-22T16:44:16;11.35;;;6.80;;
53688;SDS011;39583;54.682;30.662;2024-03-22T16:46:42;11.65;;;6.95;;
53688;SDS011;39583;54.682;30.662;2024-03-22T16:49:09;14.13;;;6.47;;
53688;SDS011;39583;54.682;30.662;2024-03-22T16:51:35;12.43;;;6.75;;
53688;SDS011;39583;54.682;30.662;2024-03-22T16:54:01;8.98;;;5.95;;
53688;SDS011;39583;54.682;30.662;2024-03-22T16:56:28;11.68;;;6.95;;
53688;SDS011;39583;54.682;30.662;2024-03-22T16:58:55;12.52;;;7.05;;
53688;SDS011;39583;54.682;30.662;2024-03-22T17:01:21;8.95;;;5.18;;
53688;SDS011;39583;54.682;30.662;2024-03-22T17:03:47;11.60;;;5.43;;
53688;SDS011;39583;54.682;30.662;2024-03-22T17:06:14;10.93;;;5.53;;
53688;SDS011;39583;54.682;30.662;2024-03-22T17:08:40;7.50;;;4.90;;
53688;SDS011;39583;54.682;30.662;2024-03-22T17:11:07;12.90;;;6.50;;
53688;SDS011;39583;54.682;30.662;2024-03-22T17:13:33;12.15;;;6.28;;
53688;SDS011;39583;54.682;30.662;2024-03-22T17:15:59;13.45;;;6.10;;
53688;SDS011;39583;54.682;30.662;2024-03-22T17:18:27;13.07;;;6.25;;
53688;SDS011;39583;54.682;30.662;2024-03-22T17:20:54;10.50;;;6.25;;
53688;SDS011;39583;54.682;30.662;2024-03-22T17:23:20;13.25;;;6.72;;
53688;SDS011;39583;54.682;30.662;2024-03-22T17:25:47;11.82;;;6.80;;
53688;SDS011;39583;54.682;30.662;2024-03-22T17:28:13;11.50;;;5.95;;
53688;SDS011;39583;54.682;30.662;2024-03-22T17:30:44;13.73;;;6.28;;
53688;SDS011;39583;54.682;30.662;2024-03-22T17:33:11;11.38;;;6.88;;
53688;SDS011;39583;54.682;30.662;2024-03-22T17:35:37;13.45;;;6.25;;
53688;SDS011;39583;54.682;30.662;2024-03-22T17:38:04;15.32;;;6.80;;
53688;SDS011;39583;54.682;30.662;2024-03-22T17:40:36;10.65;;;6.60;;
53688;SDS011;39583;54.682;30.662;2024-03-22T17:43:05;16.10;;;7.13;;
53688;SDS011;39583;54.682;30.662;2024-03-22T17:45:32;12.65;;;6.63;;
53688;SDS011;39583;54.682;30.662;2024-03-22T17:47:58;12.23;;;6.78;;
53688;SDS011;39583;54.682;30.662;2024-03-22T17:50:26;16.50;;;7.47;;
53688;SDS011;39583;54.682;30.662;2024-03-22T17:52:52;12.18;;;6.45;;
53688;SDS011;39583;54.682;30.662;2024-03-22T17:55:19;13.02;;;6.50;;
53688;SDS011;39583;54.682;30.662;2024-03-22T17:57:45;12.60;;;6.63;;
53688;SDS011;39583;54.682;30.662;2024-03-22T18:00:12;10.75;;;5.93;;
53688;SDS011;39583;54.682;30.662;2024-03-22T18:02:38;11.15;;;6.18;;
53688;SDS011;39583;54.682;30.662;2024-03-22T18:05:05;10.35;;;5.82;;
53688;SDS011;39583;54.682;30.662;2024-03-22T18:07:33;12.65;;;6.85;;
53688;SDS011;39583;54.682;30.662;2024-03-22T18:09:59;11.13;;;6.50;;
53688;SDS011;39583;54.682;30.662;2024-03-22T18:12:26;10.50;;;5.90;;
53688;SDS011;39583;54.682;30.662;2024-03-22T18:14:52;11.88;;;6.47;;
53688;SDS011;39583;54.682;30.662;2024-03-22T18:17:19;11.77;;;5.53;;
53688;SDS011;39583;54.682;30.662;2024-03-22T18:19:45;12.85;;;6.25;;
53688;SDS011;39583;54.682;30.662;2024-03-22T18:22:12;13.30;;;7.10;;
53688;SDS011;39583;54.682;30.662;2024-03-22T18:24:38;11.05;;;5.22;;
53688;SDS011;39583;54.682;30.662;2024-03-22T18:27:05;9.68;;;5.53;;
53688;SDS011;39583;54.682;30.662;2024-03-22T18:29:31;14.65;;;7.47;;
53688;SDS011;39583;54.682;30.662;2024-03-22T18:31:57;15.18;;;7.68;;
53688;SDS011;39583;54.682;30.662;2024-03-22T18:34:24;16.48;;;6.80;;
53688;SDS011;39583;54.682;30.662;2024-03-22T18:36:51;13.75;;;6.90;;
53688;SDS011;39583;54.682;30.662;2024-03-22T18:39:19;13.13;;;6.65;;
53688;SDS011;39583;54.682;30.662;2024-03-22T18:41:46;11.20;;;6.60;;
53688;SDS011;39583;54.682;30.662;2024-03-22T18:44:12;12.48;;;6.65;;
53688;SDS011;39583;54.682;30.662;2024-03-22T18:46:39;10.23;;;6.45;;
53688;SDS011;39583;54.682;30.662;2024-03-22T18:49:08;16.35;;;7.30;;
53688;SDS011;39583;54.682;30.662;2024-03-22T18:51:34;13.02;;;6.95;;
53688;SDS011;39583;54.682;30.662;2024-03-22T18:54:01;10.75;;;6.00;;
53688;SDS011;39583;54.682;30.662;2024-03-22T18:56:27;12.30;;;6.88;;
53688;SDS011;39583;54.682;30.662;2024-03-22T18:58:54;14.73;;;7.50;;
53688;SDS011;39583;54.682;30.662;2024-03-22T19:01:20;13.27;;;7.53;;
53688;SDS011;39583;54.682;30.662;2024-03-22T19:03:47;14.05;;;7.68;;
53688;SDS011;39583;54.682;30.662;2024-03-22T19:06:13;14.07;;;8.07;;
53688;SDS011;39583;54.682;30.662;2024-03-22T19:08:40;15.25;;;8.13;;
53688;SDS011;39583;54.682;30.662;2024-03-22T19:11:06;12.60;;;7.88;;
53688;SDS011;39583;54.682;30.662;2024-03-22T19:13:33;15.82;;;8.45;;
53688;SDS011;39583;54.682;30.662;2024-03-22T19:15:59;13.93;;;8.10;;
53688;SDS011;39583;54.682;30.662;2024-03-22T19:18:26;15.95;;;8.80;;
53688;SDS011;39583;54.682;30.662;2024-03-22T19:20:52;13.63;;;7.60;;
53688;SDS011;39583;54.682;30.662;2024-03-22T19:23:21;16.02;;;8.32;;
53688;SDS011;39583;54.682;30.662;2024-03-22T19:25:48;18.42;;;7.90;;
53688;SDS011;39583;54.682;30.662;2024-03-22T19:28:15;16.17;;;9.05;;
53688;SDS011;39583;54.682;30.662;2024-03-22T19:30:42;16.52;;;7.68;;
53688;SDS011;39583;54.682;30.662;2024-03-22T19:33:08;17.00;;;8.68;;
53688;SDS011;39583;54.682;30.662;2024-03-22T19:35:34;14.18;;;7.88;;
